Time;durP1;ratioP1;P1;durP2;ratioP2;P2;SDS_P1;SDS_P2;PMS_P1;PMS_P2;Temp;Humidity;BMP_temperature;BMP_pressure;BME280_temperature;BME280_humidity;BME280_pressure;Samples;Min_cycle;Max_cycle;Signal;HPM_P1;HPM_P2
2022/07/18 00:01:47;;;;;;;;;;;;;;;14.42;76.81;100951.19;1658631;86;20675;-68
2022/07/18 00:04:14;;;;;;;;;;;;;;;14.40;76.95;100951.99;1657661;85;21182;-68
2022/07/18 00:06:40;;;;;;;;;;;;;;;14.40;76.98;100949.84;1658858;85;20158;-68
2022/07/18 00:09:07;;;;;;;;;;;;;;;14.40;76.96;100953.88;1659240;86;20205;-68
2022/07/18 00:11:34;;;;;;;;;;;;;;;14.42;76.95;100953.08;1658303;86;20163;-67
2022/07/18 00:14:02;;;;;;;;;;;;;;;14.42;76.99;100957.11;1654089;85;20230;-66
2022/07/18 00:16:29;;;;;;;;;;;;;;;14.41;77.01;100959.00;1658110;85;21766;-68
2022/07/18 00:19:02;;;;;;;;;;;;;;;14.42;77.21;100958.45;1657428;85;20168;-68
2022/07/18 00:21:25;;;;;;;;;;;;;;;14.40;77.25;100953.88;1656087;85;20151;-69
2022/07/18 00:23:52;;;;;;;;;;;;;;;14.41;77.33;100958.17;1652230;85;20635;-69
2022/07/18 00:26:19;;;;;;;;;;;;;;;14.40;77.37;100952.53;1656923;85;20150;-68
2022/07/18 00:28:45;;;;;;;;;;;;;;;14.39;77.34;100951.73;1658246;85;21151;-68
2022/07/18 00:31:11;;;;;;;;;;;;;;;14.40;77.34;100962.74;1657437;85;20139;-68
2022/07/18 00:33:40;;;;;;;;;;;;;;;14.38;77.47;100962.73;1658136;85;20518;-68
2022/07/18 00:36:06;;;;;;;;;;;;;;;14.38;77.61;100953.34;1658949;86;20135;-69
2022/07/18 00:38:32;;;;;;;;;;;;;;;14.38;77.61;100952.82;1657257;86;20246;-69
2022/07/18 00:40:59;;;;;;;;;;;;;;;14.38;77.67;100956.85;1657258;86;21276;-69
2022/07/18 00:43:25;;;;;;;;;;;;;;;14.37;77.65;100957.91;1658831;86;20147;-69
2022/07/18 00:45:52;;;;;;;;;;;;;;;14.54;77.24;100953.08;1659003;86;20147;-69
2022/07/18 00:48:19;;;;;;;;;;;;;;;14.62;76.96;100954.39;1659338;86;20778;-69
2022/07/18 00:50:46;;;;;;;;;;;;;;;14.66;76.84;100960.82;1658754;85;20179;-68
2022/07/18 00:53:13;;;;;;;;;;;;;;;14.68;76.76;100962.70;1658890;86;21119;-69
2022/07/18 00:55:42;;;;;;;;;;;;;;;14.69;76.78;100964.31;1658581;86;20147;-68
2022/07/18 00:58:10;;;;;;;;;;;;;;;14.72;76.75;100967.80;1658612;86;20211;-68
2022/07/18 01:03:24;;;;;;;;;;;;;;;14.72;76.77;100972.37;1658834;86;20151;-68
2022/07/18 01:05:50;;;;;;;;;;;;;;;14.71;76.81;100969.42;1659073;86;21304;-67
2022/07/18 01:08:16;;;;;;;;;;;;;;;14.68;76.82;100965.39;1658768;86;20179;-67
2022/07/18 01:10:43;;;;;;;;;;;;;;;14.67;76.79;100965.11;1649094;85;20188;-67
2022/07/18 01:13:09;;;;;;;;;;;;;;;14.67;76.87;100968.34;1638124;86;20147;-67
2022/07/18 01:15:36;;;;;;;;;;;;;;;14.65;76.97;100969.17;1658729;85;20154;-68
2022/07/18 01:18:03;;;;;;;;;;;;;;;14.65;76.96;100967.28;1658272;85;21175;-68
2022/07/18 01:20:31;;;;;;;;;;;;;;;14.67;76.92;100965.66;1654938;85;20454;-67
2022/07/18 01:22:59;;;;;;;;;;;;;;;14.66;76.93;100964.05;1657920;85;20170;-67
2022/07/18 01:25:26;;;;;;;;;;;;;;;14.66;76.96;100968.09;1659172;86;20158;-68
2022/07/18 01:27:53;;;;;;;;;;;;;;;14.67;76.91;100968.34;1658092;86;20172;-69
2022/07/18 01:30:20;;;;;;;;;;;;;;;14.67;76.87;100972.37;1659261;86;21163;-68
2022/07/18 01:32:57;;;;;;;;;;;;;;;14.61;76.94;100981.53;1657653;85;20186;-69
2022/07/18 01:35:24;;;;;;;;;;;;;;;14.34;77.76;100981.30;1655088;85;20158;-69
2022/07/18 01:37:53;;;;;;;;;;;;;;;14.49;77.37;100975.90;1657685;85;20445;-68
2022/07/18 01:40:20;;;;;;;;;;;;;;;14.47;77.24;100979.38;1656730;85;20147;-69
2022/07/18 01:42:47;;;;;;;;;;;;;;;14.47;77.27;100982.61;1647456;85;21203;-67
2022/07/18 01:45:14;;;;;;;;;;;;;;;14.28;77.75;100985.89;1658457;86;20182;-68
2022/07/18 01:47:43;;;;;;;;;;;;;;;14.21;78.13;100983.20;1658284;86;20493;-68
2022/07/18 01:50:11;;;;;;;;;;;;;;;14.18;78.30;100983.22;1670684;85;20167;-69
2022/07/18 01:52:38;;;;;;;;;;;;;;;14.19;78.39;100984.02;1678003;85;20169;-68
2022/07/18 01:55:07;;;;;;;;;;;;;;;14.18;78.46;100984.56;1666724;85;21132;-67
2022/07/18 01:57:34;;;;;;;;;;;;;;;14.17;78.56;100982.93;1659312;86;20306;-68
2022/07/18 02:00:00;;;;;;;;;;;;;;;14.16;78.64;100985.91;1658993;86;20278;-68
2022/07/18 02:02:27;;;;;;;;;;;;;;;14.14;78.69;100987.50;1658867;86;20160;-69
2022/07/18 02:04:59;;;;;;;;;;;;;;;14.15;78.73;100991.81;1658846;86;20197;-68
2022/07/18 02:07:28;;;;;;;;;;;;;;;14.15;78.78;100989.13;1658828;86;20461;-69
2022/07/18 02:09:55;;;;;;;;;;;;;;;14.15;78.83;100989.13;1658501;86;20139;-68
2022/07/18 02:12:21;;;;;;;;;;;;;;;14.14;78.87;100991.53;1659158;86;20176;-68
2022/07/18 02:14:50;;;;;;;;;;;;;;;14.13;78.98;100993.95;1651787;86;20224;-68
2022/07/18 02:17:17;;;;;;;;;;;;;;;14.13;79.10;100997.19;1644164;86;20214;-68
2022/07/18 02:19:44;;;;;;;;;;;;;;;14.12;79.17;101000.41;1657800;85;22168;-69
2022/07/18 02:22:11;;;;;;;;;;;;;;;14.13;79.28;100995.84;1657055;85;20190;-69
2022/07/18 02:24:37;;;;;;;;;;;;;;;14.12;79.37;100999.07;1656957;85;20139;-67
2022/07/18 02:27:04;;;;;;;;;;;;;;;14.14;79.43;101005.50;1658501;85;20214;-67
2022/07/18 02:29:31;;;;;;;;;;;;;;;14.16;79.52;101007.39;1645567;85;20515;-68
2022/07/18 02:31:59;;;;;;;;;;;;;;;14.23;79.48;101007.38;1657832;86;21237;-69
2022/07/18 02:34:25;;;;;;;;;;;;;;;14.19;79.56;101011.69;1657831;86;20205;-68
2022/07/18 02:36:52;;;;;;;;;;;;;;;14.21;79.60;101008.72;1657810;86;20205;-68
2022/07/18 02:39:19;;;;;;;;;;;;;;;14.33;79.43;101013.28;1658434;86;20201;-69
2022/07/18 02:41:46;;;;;;;;;;;;;;;14.31;79.50;101009.53;1659146;86;20203;-69
2022/07/18 02:44:14;;;;;;;;;;;;;;;14.34;79.49;101011.39;1658970;86;21535;-68
2022/07/18 02:46:41;;;;;;;;;;;;;;;14.35;79.48;101010.34;1658536;86;20234;-68
2022/07/18 02:49:08;;;;;;;;;;;;;;;14.38;79.51;100999.85;1659180;86;20161;-69
2022/07/18 02:51:34;;;;;;;;;;;;;;;14.41;79.54;101005.20;1658692;86;20155;-68
2022/07/18 02:54:01;;;;;;;;;;;;;;;14.43;79.54;101015.15;1654842;85;20158;-68
2022/07/18 02:56:28;;;;;;;;;;;;;;;14.46;79.57;101009.23;1657221;85;21202;-69
2022/07/18 02:58:54;;;;;;;;;;;;;;;14.46;79.49;101008.69;1657503;85;20246;-68
2022/07/18 03:01:21;;;;;;;;;;;;;;;14.49;79.40;101009.49;1657856;85;20605;-69
2022/07/18 03:03:47;;;;;;;;;;;;;;;14.49;79.27;101012.73;1657927;85;20139;-68
2022/07/18 03:06:14;;;;;;;;;;;;;;;14.50;79.22;101010.30;1657618;85;20238;-68
2022/07/18 03:08:40;;;;;;;;;;;;;;;14.52;79.22;101011.67;1657813;85;21406;-69
2022/07/18 03:11:07;;;;;;;;;;;;;;;14.58;79.17;101011.64;1656872;85;20406;-68
2022/07/18 03:13:33;;;;;;;;;;;;;;;14.63;79.12;101015.68;1657562;85;20185;-69
2022/07/18 03:16:00;;;;;;;;;;;;;;;14.66;79.08;101022.66;1656924;85;20457;-68
2022/07/18 03:18:27;;;;;;;;;;;;;;;14.67;78.92;101026.95;1654658;85;20155;-69
2022/07/18 03:20:54;;;;;;;;;;;;;;;14.69;78.82;101034.22;1658638;85;21171;-69
2022/07/18 03:23:20;;;;;;;;;;;;;;;14.73;78.71;101035.27;1631326;86;20154;-69
2022/07/18 03:25:47;;;;;;;;;;;;;;;14.80;78.72;101040.91;1649997;86;20204;-69
2022/07/18 03:28:15;;;;;;;;;;;;;;;14.86;78.63;101042.51;1657537;85;20211;-69
2022/07/18 03:30:42;;;;;;;;;;;;;;;14.93;78.43;101046.51;1646301;85;20188;-69
2022/07/18 03:33:08;;;;;;;;;;;;;;;14.98;78.29;101033.60;1631066;88;21161;-69
2022/07/18 03:35:35;;;;;;;;;;;;;;;15.05;78.22;101043.52;1651939;85;20377;-68
2022/07/18 03:38:01;;;;;;;;;;;;;;;15.11;77.94;101041.08;1656519;86;20223;-69
2022/07/18 03:40:29;;;;;;;;;;;;;;;15.15;77.58;101040.79;1657590;86;20441;-69
2022/07/18 03:42:56;;;;;;;;;;;;;;;15.19;77.18;101041.05;1658265;86;20497;-70
2022/07/18 03:45:23;;;;;;;;;;;;;;;15.21;76.82;101049.11;1658987;86;21765;-70
2022/07/18 03:47:49;;;;;;;;;;;;;;;15.27;76.54;101054.45;1659222;86;20348;-70
2022/07/18 03:50:15;;;;;;;;;;;;;;;15.31;76.20;101047.46;1659054;86;20445;-70
2022/07/18 03:52:42;;;;;;;;;;;;;;;15.38;76.17;101050.66;1659204;86;20152;-69
2022/07/18 03:55:08;;;;;;;;;;;;;;;15.43;75.86;101045.23;1659381;86;20172;-69
2022/07/18 03:57:35;;;;;;;;;;;;;;;15.48;75.70;101060.02;1659287;86;21915;-70
2022/07/18 04:00:02;;;;;;;;;;;;;;;15.55;75.43;101051.64;1658581;86;20163;-70
2022/07/18 04:02:31;;;;;;;;;;;;;;;15.62;75.30;101050.23;1657567;86;20179;-68
2022/07/18 04:04:58;;;;;;;;;;;;;;;15.70;74.95;101045.66;1658494;86;20135;-68
2022/07/18 04:07:25;;;;;;;;;;;;;;;15.77;74.51;101045.34;1659332;86;20179;-69
2022/07/18 04:09:51;;;;;;;;;;;;;;;15.92;74.17;101046.56;1659185;86;21137;-69
2022/07/18 04:12:18;;;;;;;;;;;;;;;15.94;73.75;101048.45;1659778;86;20138;-69
2022/07/18 04:14:44;;;;;;;;;;;;;;;15.97;73.20;101051.67;1658925;86;20197;-68
2022/07/18 04:17:12;;;;;;;;;;;;;;;15.99;73.05;101051.66;1658570;86;20146;-69
2022/07/18 04:19:39;;;;;;;;;;;;;;;16.04;72.96;101052.16;1613521;86;20446;-69
2022/07/18 04:22:06;;;;;;;;;;;;;;;16.09;72.45;101048.06;1668030;85;21134;-68
2022/07/18 04:24:42;;;;;;;;;;;;;;;16.14;72.25;101050.18;1635848;85;20174;-69
2022/07/18 04:27:20;;;;;;;;;;;;;;;16.22;72.29;101048.76;1633302;85;20157;-68
2022/07/18 04:29:46;;;;;;;;;;;;;;;16.39;72.41;101042.98;1634419;86;20155;-69
2022/07/18 04:32:30;;;;;;;;;;;;;;;16.52;71.88;101054.45;1632535;86;20482;-68
2022/07/18 04:34:57;;;;;;;;;;;;;;;16.67;71.37;101049.98;1658653;85;21194;-69
2022/07/18 04:37:31;;;;;;;;;;;;;;;16.74;70.79;101057.18;1637583;85;20219;-68
2022/07/18 04:39:59;;;;;;;;;;;;;;;16.83;70.33;101056.85;1658490;86;20151;-68
2022/07/18 04:42:32;;;;;;;;;;;;;;;16.90;70.07;101050.56;1659512;86;20449;-68
2022/07/18 04:45:10;;;;;;;;;;;;;;;16.98;69.33;101048.59;1658311;86;20159;-68
2022/07/18 04:47:50;;;;;;;;;;;;;;;17.03;68.75;101053.91;1659404;86;21182;-67
2022/07/18 04:50:29;;;;;;;;;;;;;;;17.09;68.37;101058.72;1658761;86;20138;-68
2022/07/18 04:53:10;;;;;;;;;;;;;;;17.15;68.01;101058.92;1659131;86;20171;-69
2022/07/18 04:55:43;;;;;;;;;;;;;;;17.24;68.17;101054.49;1659197;86;20124;-68
2022/07/18 04:58:17;;;;;;;;;;;;;;;17.37;67.84;101062.41;1659584;86;20146;-69
2022/07/18 05:00:55;;;;;;;;;;;;;;;17.46;67.42;101061.22;1659261;86;21169;-69
2022/07/18 05:03:24;;;;;;;;;;;;;;;17.53;66.89;101061.11;1658073;85;20540;-69
2022/07/18 05:05:51;;;;;;;;;;;;;;;17.56;66.45;101065.93;1657867;85;20218;-68
2022/07/18 05:08:18;;;;;;;;;;;;;;;17.61;66.38;101059.67;1656981;85;20162;-69
2022/07/18 05:10:44;;;;;;;;;;;;;;;17.71;65.68;101068.98;1658060;85;20151;-68
2022/07/18 05:13:11;;;;;;;;;;;;;;;17.94;65.16;101060.56;1656903;85;21578;-69
2022/07/18 05:15:39;;;;;;;;;;;;;;;18.00;65.06;101058.04;1657513;85;20146;-68
2022/07/18 05:18:07;;;;;;;;;;;;;;;18.05;64.96;101068.75;1657979;85;20146;-67
2022/07/18 05:20:35;;;;;;;;;;;;;;;18.07;64.79;101071.73;1656039;85;20252;-69
2022/07/18 05:23:01;;;;;;;;;;;;;;;18.04;64.15;101063.10;1657570;85;20237;-69
2022/07/18 05:25:28;;;;;;;;;;;;;;;18.18;64.21;101065.05;1658045;85;21220;-68
2022/07/18 05:27:55;;;;;;;;;;;;;;;18.22;63.99;101056.04;1657375;85;20499;-69
2022/07/18 05:30:21;;;;;;;;;;;;;;;18.28;63.65;101062.97;1658132;85;20155;-68
2022/07/18 05:32:48;;;;;;;;;;;;;;;18.30;63.48;101057.28;1657657;85;20151;-67
2022/07/18 05:35:15;;;;;;;;;;;;;;;18.32;63.15;101064.53;1655896;85;20162;-70
2022/07/18 05:37:42;;;;;;;;;;;;;;;18.35;62.87;101057.18;1658385;86;21370;-69
2022/07/18 05:40:10;;;;;;;;;;;;;;;18.38;62.67;101059.30;1656206;86;20190;-69
2022/07/18 05:42:37;;;;;;;;;;;;;;;18.40;62.10;101053.05;1649214;85;20133;-68
2022/07/18 05:45:05;;;;;;;;;;;;;;;18.43;62.42;101055.72;1630896;87;20395;-68
2022/07/18 05:47:31;;;;;;;;;;;;;;;18.47;62.45;101052.11;1635273;85;20227;-68
2022/07/18 05:49:58;;;;;;;;;;;;;;;18.55;62.32;101060.63;1657672;85;21163;-69
2022/07/18 05:52:25;;;;;;;;;;;;;;;18.61;61.34;101052.68;1656669;85;20213;-67
2022/07/18 05:54:52;;;;;;;;;;;;;;;18.49;62.08;101053.15;1657598;85;20508;-69
2022/07/18 05:57:18;;;;;;;;;;;;;;;18.77;61.84;101054.03;1654615;85;20188;-68
2022/07/18 05:59:46;;;;;;;;;;;;;;;18.82;61.14;101055.30;1657613;85;20155;-68
2022/07/18 06:02:12;;;;;;;;;;;;;;;18.87;61.10;101052.48;1658395;85;21079;-68
2022/07/18 06:04:39;;;;;;;;;;;;;;;18.98;60.92;101054.42;1658024;85;20702;-69
2022/07/18 06:07:05;;;;;;;;;;;;;;;18.93;61.55;101053.98;1658190;85;20222;-69
2022/07/18 06:09:31;;;;;;;;;;;;;;;19.19;60.85;101056.19;1656325;85;20194;-68
2022/07/18 06:11:59;;;;;;;;;;;;;;;19.34;59.86;101052.34;1658316;84;20480;-69
2022/07/18 06:14:28;;;;;;;;;;;;;;;19.18;60.36;101064.05;1657233;85;21171;-67
2022/07/18 06:16:55;;;;;;;;;;;;;;;19.28;60.29;101056.27;1657503;85;20209;-69
2022/07/18 06:19:24;;;;;;;;;;;;;;;19.40;60.04;101053.28;1656401;86;20493;-69
2022/07/18 06:21:51;;;;;;;;;;;;;;;19.49;59.63;101051.23;1657953;85;20160;-69
2022/07/18 06:24:18;;;;;;;;;;;;;;;19.62;59.39;101053.09;1657365;86;20317;-68
2022/07/18 06:26:44;;;;;;;;;;;;;;;19.70;58.63;101053.74;1659046;86;21146;-68
2022/07/18 06:29:10;;;;;;;;;;;;;;;19.79;58.29;101047.84;1657593;85;20184;-68
2022/07/18 06:31:39;;;;;;;;;;;;;;;19.85;57.82;101046.62;1657061;85;20162;-68
2022/07/18 06:34:06;;;;;;;;;;;;;;;19.92;57.24;101044.84;1657870;85;20856;-69
2022/07/18 06:36:32;;;;;;;;;;;;;;;20.03;57.20;101049.45;1658053;85;20171;-68
2022/07/18 06:38:59;;;;;;;;;;;;;;;20.15;56.97;101046.98;1656346;85;22175;-68
2022/07/18 06:41:26;;;;;;;;;;;;;;;20.22;56.11;101050.06;1658389;85;20186;-67
2022/07/18 06:43:52;;;;;;;;;;;;;;;20.33;56.44;101042.45;1659014;86;20205;-68
2022/07/18 06:46:20;;;;;;;;;;;;;;;20.44;56.38;101043.02;1658510;85;20465;-68
2022/07/18 06:48:46;;;;;;;;;;;;;;;20.66;55.62;101038.09;1657110;85;20154;-69
2022/07/18 06:51:14;;;;;;;;;;;;;;;20.73;55.48;101034.38;1654741;85;20429;-67
2022/07/18 06:53:41;;;;;;;;;;;;;;;20.69;55.17;101040.19;1657112;85;20144;-67
2022/07/18 06:56:08;;;;;;;;;;;;;;;20.87;54.22;101036.44;1657451;85;20374;-67
2022/07/18 06:58:35;;;;;;;;;;;;;;;20.99;53.78;101038.53;1656853;85;20151;-68
2022/07/18 07:01:02;;;;;;;;;;;;;;;21.06;53.47;101041.05;1659082;85;20446;-67
2022/07/18 07:03:29;;;;;;;;;;;;;;;21.07;53.65;101030.42;1658485;85;21342;-69
2022/07/18 07:06:01;;;;;;;;;;;;;;;20.99;53.88;101036.64;1656971;85;20437;-69
2022/07/18 07:08:28;;;;;;;;;;;;;;;20.99;53.57;101048.86;1657542;85;20146;-68
2022/07/18 07:10:54;;;;;;;;;;;;;;;21.03;52.92;101046.31;1658028;85;21122;-68
2022/07/18 07:13:22;;;;;;;;;;;;;;;21.07;52.55;101053.50;1643147;84;20739;-67
2022/07/18 07:15:48;;;;;;;;;;;;;;;;;;1630996;88;21315;-68
2022/07/18 07:18:15;;;;;;;;;;;;;;;21.16;52.27;101039.95;1645390;85;20237;-68
2022/07/18 07:20:41;;;;;;;;;;;;;;;21.39;51.82;101039.84;1657956;85;20245;-68
2022/07/18 07:23:08;;;;;;;;;;;;;;;21.52;51.78;101038.92;1657985;85;20158;-68
2022/07/18 07:25:36;;;;;;;;;;;;;;;21.61;51.50;101036.98;1659016;86;20151;-68
2022/07/18 07:28:04;;;;;;;;;;;;;;;21.71;51.86;101039.94;1659246;86;21340;-69
2022/07/18 07:30:30;;;;;;;;;;;;;;;21.77;50.98;101039.45;1658782;86;20482;-68
2022/07/18 07:32:58;;;;;;;;;;;;;;;21.84;51.00;101041.70;1659385;86;20155;-69
2022/07/18 07:35:24;;;;;;;;;;;;;;;21.93;50.82;101044.42;1657747;85;20545;-69
2022/07/18 07:37:54;;;;;;;;;;;;;;;21.85;50.37;101038.41;1658035;85;20249;-69
2022/07/18 07:40:21;;;;;;;;;;;;;;;21.90;50.20;101038.27;1658769;86;21145;-68
2022/07/18 07:42:48;;;;;;;;;;;;;;;21.99;50.46;101052.09;1657757;85;20262;-68
2022/07/18 07:45:14;;;;;;;;;;;;;;;22.10;50.17;101040.30;1630770;88;20215;-69
2022/07/18 07:47:40;;;;;;;;;;;;;;;22.21;50.26;101048.41;1631290;88;20452;-67
2022/07/18 07:50:08;;;;;;;;;;;;;;;22.27;49.37;101044.14;1651915;85;20174;-68
2022/07/18 07:52:35;;;;;;;;;;;;;;;22.32;49.42;101042.06;1658248;85;21230;-66
2022/07/18 07:55:02;;;;;;;;;;;;;;;22.35;49.38;101051.50;1657529;85;20179;-69
2022/07/18 07:57:30;;;;;;;;;;;;;;;22.36;48.07;101034.84;1657852;85;20211;-69
2022/07/18 07:59:56;;;;;;;;;;;;;;;22.42;48.33;101043.63;1657543;85;20213;-68
2022/07/18 08:02:22;;;;;;;;;;;;;;;22.43;48.69;101045.22;1657450;85;20418;-68
2022/07/18 08:04:50;;;;;;;;;;;;;;;22.48;48.04;101043.70;1657413;85;21994;-68
2022/07/18 08:07:16;;;;;;;;;;;;;;;22.57;47.42;101043.08;1658675;85;20299;-67
2022/07/18 08:09:44;;;;;;;;;;;;;;;22.65;47.69;101048.28;1630202;85;20217;-68
2022/07/18 08:12:12;;;;;;;;;;;;;;;22.76;46.89;101035.09;1657587;85;20509;-68
2022/07/18 08:14:40;;;;;;;;;;;;;;;22.91;47.25;101039.99;1658175;85;20151;-67
2022/07/18 08:17:06;;;;;;;;;;;;;;;23.02;46.34;101039.88;1657786;86;21161;-68
2022/07/18 08:19:34;;;;;;;;;;;;;;;23.08;45.83;101031.74;1656674;86;20220;-69
2022/07/18 08:22:01;;;;;;;;;;;;;;;23.06;45.10;101031.27;1658528;85;20187;-69
2022/07/18 08:24:27;;;;;;;;;;;;;;;23.19;45.04;101033.52;1654609;85;20195;-67
2022/07/18 08:26:55;;;;;;;;;;;;;;;23.33;44.42;101031.35;1658566;85;20135;-68
2022/07/18 08:29:22;;;;;;;;;;;;;;;23.39;43.93;101034.66;1657197;85;21782;-67
2022/07/18 08:31:49;;;;;;;;;;;;;;;23.40;43.68;101026.73;1657308;85;20159;-68
2022/07/18 08:34:16;;;;;;;;;;;;;;;23.46;43.05;101028.13;1656878;85;20298;-67
2022/07/18 08:36:42;;;;;;;;;;;;;;;23.48;42.50;101035.40;1656949;85;20288;-68
2022/07/18 08:39:09;;;;;;;;;;;;;;;23.70;42.67;101030.20;1658207;85;20174;-67
2022/07/18 08:41:35;;;;;;;;;;;;;;;23.59;42.79;101026.24;1659316;86;21806;-68
2022/07/18 08:44:01;;;;;;;;;;;;;;;23.64;42.68;101044.57;1659441;86;20175;-67
2022/07/18 08:46:28;;;;;;;;;;;;;;;23.69;41.63;101032.71;1657733;86;20496;-68
2022/07/18 08:48:59;;;;;;;;;;;;;;;23.95;41.18;101031.08;1658507;86;20440;-68
2022/07/18 08:51:25;;;;;;;;;;;;;;;23.84;42.13;101036.73;1658975;86;20701;-68
2022/07/18 08:53:52;;;;;;;;;;;;;;;23.92;41.74;101041.88;1659026;86;22225;-68
2022/07/18 08:56:18;;;;;;;;;;;;;;;24.00;40.04;101043.16;1659042;86;20135;-68
2022/07/18 08:58:47;;;;;;;;;;;;;;;24.06;39.63;101029.55;1659379;86;20150;-68
2022/07/18 09:01:14;;;;;;;;;;;;;;;24.14;40.33;101037.41;1659180;86;20158;-68
2022/07/18 09:03:41;;;;;;;;;;;;;;;24.22;39.83;101037.07;1659267;86;20158;-68
2022/07/18 09:06:13;;;;;;;;;;;;;;;24.27;39.58;101040.97;1659153;85;21806;-68
2022/07/18 09:08:41;;;;;;;;;;;;;;;24.29;38.81;101025.05;1658783;86;20213;-68
2022/07/18 09:11:11;;;;;;;;;;;;;;;24.30;39.65;101038.92;1658694;86;20214;-68
2022/07/18 09:13:39;;;;;;;;;;;;;;;24.27;39.21;101038.23;1658752;86;20453;-67
2022/07/18 09:16:13;;;;;;;;;;;;;;;24.18;39.51;101024.67;1658640;86;20237;-67
2022/07/18 09:18:44;;;;;;;;;;;;;;;24.26;39.61;101025.73;1659458;86;21162;-67
2022/07/18 09:21:20;;;;;;;;;;;;;;;24.25;38.59;101035.03;1659182;86;20470;-67
2022/07/18 09:23:48;;;;;;;;;;;;;;;24.26;38.53;101018.91;1657593;85;20210;-67
2022/07/18 09:26:35;;;;;;;;;;;;;;;24.31;38.76;101018.09;1657414;85;20229;-67
2022/07/18 09:29:01;;;;;;;;;;;;;;;24.45;38.80;101024.66;1657133;85;20164;-68
2022/07/18 09:31:28;;;;;;;;;;;;;;;24.54;39.43;101017.13;1657717;85;22156;-67
2022/07/18 09:34:00;;;;;;;;;;;;;;;24.68;38.65;101029.66;1656046;85;20186;-68
2022/07/18 09:36:27;;;;;;;;;;;;;;;24.83;37.92;101021.36;1657842;85;20171;-68
2022/07/18 09:38:54;;;;;;;;;;;;;;;24.92;37.29;101035.14;1657492;85;20154;-68
2022/07/18 09:41:32;;;;;;;;;;;;;;;24.96;36.75;101016.91;1657261;85;20180;-69
2022/07/18 09:43:58;;;;;;;;;;;;;;;25.02;36.98;101021.58;1657018;85;21183;-67
2022/07/18 09:46:25;;;;;;;;;;;;;;;25.12;36.86;101016.25;1652486;85;20186;-69
2022/07/18 09:49:10;;;;;;;;;;;;;;;25.21;36.41;101016.92;1657846;85;20193;-67
2022/07/18 09:51:37;;;;;;;;;;;;;;;25.22;37.18;101026.70;1657840;85;20278;-68
2022/07/18 09:54:04;;;;;;;;;;;;;;;25.23;37.70;101016.78;1659595;86;20174;-68
2022/07/18 09:56:33;;;;;;;;;;;;;;;25.29;37.75;101017.92;1655244;85;21130;-67
2022/07/18 09:58:59;;;;;;;;;;;;;;;25.31;36.92;101013.70;1655158;85;20562;-68
2022/07/18 10:01:26;;;;;;;;;;;;;;;25.49;35.67;101016.37;1656893;85;20238;-67
2022/07/18 10:03:52;;;;;;;;;;;;;;;25.36;34.96;101016.18;1657643;85;20142;-69
2022/07/18 10:06:18;;;;;;;;;;;;;;;25.34;35.39;101011.64;1657620;85;20214;-68
2022/07/18 10:08:45;;;;;;;;;;;;;;;25.41;35.27;101009.11;1658262;85;21138;-67
2022/07/18 10:11:13;;;;;;;;;;;;;;;25.49;35.19;101010.11;1659158;86;20159;-68
2022/07/18 10:13:39;;;;;;;;;;;;;;;25.54;36.04;101027.66;1658077;85;20201;-68
2022/07/18 10:16:07;;;;;;;;;;;;;;;25.55;35.59;101014.77;1657150;86;20473;-68
2022/07/18 10:18:35;;;;;;;;;;;;;;;25.54;35.86;101027.66;1658858;86;20155;-68
2022/07/18 10:21:05;;;;;;;;;;;;;;;25.53;35.79;101020.57;1658934;86;21140;-68
2022/07/18 10:23:39;;;;;;;;;;;;;;;25.72;35.61;101014.46;1658622;86;20175;-68
2022/07/18 10:26:22;;;;;;;;;;;;;;;25.68;36.07;101014.37;1658736;86;20147;-67
2022/07/18 10:28:59;;;;;;;;;;;;;;;25.90;34.64;101013.05;1658718;86;20143;-68
2022/07/18 10:31:37;;;;;;;;;;;;;;;26.09;34.24;101008.83;1658923;86;20143;-68
2022/07/18 10:34:10;;;;;;;;;;;;;;;26.13;33.53;101000.16;1659029;86;21187;-68
2022/07/18 10:36:56;;;;;;;;;;;;;;;26.17;33.58;101007.88;1659220;86;20453;-68
2022/07/18 10:39:34;;;;;;;;;;;;;;;26.21;33.56;101010.13;1659290;86;20975;-67
2022/07/18 10:42:05;;;;;;;;;;;;;;;26.13;32.58;101011.91;1658964;86;20170;-67
2022/07/18 10:44:34;;;;;;;;;;;;;;;26.01;33.02;101009.23;1659125;86;20139;-69
2022/07/18 10:47:23;;;;;;;;;;;;;;;25.98;33.69;101009.92;1658930;86;21269;-68
2022/07/18 10:49:56;;;;;;;;;;;;;;;26.03;33.69;101000.66;1658500;86;20168;-68
2022/07/18 10:52:35;;;;;;;;;;;;;;;26.06;32.96;101008.98;1658841;86;20187;-67
2022/07/18 10:55:16;;;;;;;;;;;;;;;25.87;32.60;101004.17;1658535;86;20204;-66
2022/07/18 10:57:53;;;;;;;;;;;;;;;25.71;34.16;100994.52;1658973;86;20164;-66
2022/07/18 11:00:26;;;;;;;;;;;;;;;25.65;34.85;101001.96;1658745;86;21245;-68
2022/07/18 11:03:06;;;;;;;;;;;;;;;25.57;34.95;101000.97;1657858;86;20195;-68
2022/07/18 11:05:48;;;;;;;;;;;;;;;25.66;35.00;100996.13;1639968;85;20133;-67
2022/07/18 11:08:24;;;;;;;;;;;;;;;25.81;33.17;100997.94;1631639;88;20502;-67
2022/07/18 11:11:01;;;;;;;;;;;;;;;25.88;32.47;100996.17;1632262;88;20153;-68
2022/07/18 11:13:34;;;;;;;;;;;;;;;25.91;32.56;100991.38;1631144;88;22095;-67
2022/07/18 11:16:06;;;;;;;;;;;;;;;25.86;32.91;100997.09;1672102;85;20280;-68
2022/07/18 11:18:42;;;;;;;;;;;;;;;25.77;33.42;100996.44;1677528;85;20144;-68
2022/07/18 11:21:26;;;;;;;;;;;;;;;25.76;33.10;100993.46;1646404;85;20231;-67
2022/07/18 11:24:01;;;;;;;;;;;;;;;25.72;33.54;100988.47;1658887;86;20489;-67
2022/07/18 11:26:32;;;;;;;;;;;;;;;25.54;33.38;100994.83;1659211;86;21319;-67
2022/07/18 11:29:05;;;;;;;;;;;;;;;25.44;33.71;100993.38;1658841;86;20171;-68
2022/07/18 11:31:39;;;;;;;;;;;;;;;25.42;33.77;100983.92;1658991;86;20254;-68
2022/07/18 11:34:14;;;;;;;;;;;;;;;25.43;33.94;100994.50;1651801;86;20457;-67
2022/07/18 11:36:53;;;;;;;;;;;;;;;25.40;34.04;100990.30;1659140;86;20170;-68
2022/07/18 11:39:30;;;;;;;;;;;;;;;25.34;33.51;100987.03;1658631;86;21098;-68
2022/07/18 11:42:12;;;;;;;;;;;;;;;25.31;33.45;100982.26;1658662;86;20175;-68
2022/07/18 11:44:40;;;;;;;;;;;;;;;25.31;34.17;100980.89;1658774;86;20151;-69
2022/07/18 11:47:18;;;;;;;;;;;;;;;25.37;33.93;100980.88;1658827;86;20147;-68
2022/07/18 11:50:01;;;;;;;;;;;;;;;25.39;33.77;100981.31;1658564;85;20139;-68
2022/07/18 11:52:41;;;;;;;;;;;;;;;25.42;34.26;100974.35;1659227;86;21266;-67
2022/07/18 11:55:15;;;;;;;;;;;;;;;25.45;34.85;100968.98;1658683;86;20143;-68
2022/07/18 11:57:49;;;;;;;;;;;;;;;25.53;35.33;100967.81;1658967;86;20159;-67
2022/07/18 12:00:22;;;;;;;;;;;;;;;25.47;35.08;100964.55;1658616;86;20543;-69
2022/07/18 12:03:11;;;;;;;;;;;;;;;25.37;35.12;100974.04;1658982;86;20477;-67
2022/07/18 12:05:57;;;;;;;;;;;;;;;25.16;35.71;100974.77;1671931;85;21882;-69
2022/07/18 12:08:41;;;;;;;;;;;;;;;24.98;36.18;100968.19;1658347;85;20198;-69
2022/07/18 12:11:19;;;;;;;;;;;;;;;24.91;37.03;100974.80;1658340;86;20437;-67
2022/07/18 12:14:18;;;;;;;;;;;;;;;24.88;36.36;100971.97;1633781;85;20153;-68
2022/07/18 12:17:05;;;;;;;;;;;;;;;24.88;36.58;100968.66;1631559;88;20153;-67
2022/07/18 12:19:44;;;;;;;;;;;;;;;24.84;36.36;100965.00;1630595;88;20149;-68
2022/07/18 12:22:18;;;;;;;;;;;;;;;24.80;36.18;100970.36;1632305;88;20157;-68
2022/07/18 12:25:00;;;;;;;;;;;;;;;24.75;36.26;100967.08;1610531;88;20157;-68
2022/07/18 12:27:43;;;;;;;;;;;;;;;24.73;36.62;100968.77;1632520;88;20157;-67
2022/07/18 12:30:19;;;;;;;;;;;;;;;24.84;36.85;100969.09;1656158;86;20182;-68
2022/07/18 12:33:01;;;;;;;;;;;;;;;24.90;36.67;100974.56;1658921;86;20622;-67
2022/07/18 12:35:35;;;;;;;;;;;;;;;24.83;36.15;100978.44;1658551;86;20199;-68
2022/07/18 12:38:20;;;;;;;;;;;;;;;24.68;36.83;100972.30;1643729;86;20150;-68
2022/07/18 12:41:03;;;;;;;;;;;;;;;24.51;37.55;100975.52;1659325;86;20530;-68
2022/07/18 12:43:44;;;;;;;;;;;;;;;24.31;38.18;100979.87;1659275;86;20226;-66
2022/07/18 12:46:19;;;;;;;;;;;;;;;24.26;38.58;100970.56;1658936;86;21194;-69
2022/07/18 12:48:53;;;;;;;;;;;;;;;24.37;39.03;100975.58;1659069;86;20201;-68
2022/07/18 12:51:31;;;;;;;;;;;;;;;24.52;37.89;100977.09;1658853;86;20159;-67
2022/07/18 12:54:05;;;;;;;;;;;;;;;24.63;37.49;100980.73;1658561;86;20447;-68